createdAt,value
2022-07-28T00:00:26.511Z,16.87
2022-07-28T00:03:28.671Z,17.03
2022-07-28T00:06:30.824Z,17.05
2022-07-28T00:09:32.915Z,17.02
2022-07-28T00:12:35.027Z,17.05
2022-07-28T00:15:37.121Z,17.01
2022-07-28T00:18:39.620Z,16.96
2022-07-28T00:21:41.733Z,16.93
2022-07-28T00:24:43.940Z,16.92
2022-07-28T00:27:46.015Z,16.93
2022-07-28T00:30:48.125Z,16.97
2022-07-28T00:33:50.469Z,16.97
2022-07-28T00:36:52.548Z,16.99
2022-07-28T00:39:54.647Z,17.01
2022-07-28T00:42:56.716Z,16.95
2022-07-28T00:45:58.847Z,16.93
2022-07-28T00:49:01.081Z,16.88
2022-07-28T00:52:07.692Z,16.91
2022-07-28T00:55:10.204Z,16.95
2022-07-28T00:58:12.555Z,16.97
2022-07-28T01:01:17.720Z,16.92
2022-07-28T01:04:19.989Z,16.86
2022-07-28T01:07:42.035Z,16.79
2022-07-28T01:11:11.006Z,16.75
2022-07-28T01:14:38.871Z,16.78
2022-07-28T01:17:58.224Z,16.83
2022-07-28T01:21:08.196Z,16.84
2022-07-28T01:24:31.105Z,16.84
2022-07-28T01:28:08.063Z,16.75
2022-07-28T01:31:10.264Z,16.48
2022-07-28T01:34:20.082Z,16.44
2022-07-28T01:37:26.279Z,15.61
2022-07-28T01:40:32.731Z,15.82
2022-07-28T01:43:38.027Z,15.50
2022-07-28T01:46:40.226Z,15.39
2022-07-28T01:49:42.381Z,15.88
2022-07-28T01:52:46.183Z,15.36
2022-07-28T01:55:48.292Z,15.20
2022-07-28T01:58:51.367Z,15.58
2022-07-28T02:01:53.556Z,15.92
2022-07-28T02:04:57.178Z,15.82
2022-07-28T02:07:59.651Z,16.03
2022-07-28T02:11:20.456Z,16.26
2022-07-28T02:14:24.544Z,16.55
2022-07-28T02:17:31.020Z,16.52
2022-07-28T02:20:33.107Z,16.63
2022-07-28T02:23:35.291Z,16.52
2022-07-28T02:26:41.215Z,16.46
2022-07-28T02:29:51.413Z,16.63
2022-07-28T02:33:03.405Z,16.60
2022-07-28T02:36:08.023Z,16.63
2022-07-28T02:39:22.378Z,16.52
2022-07-28T02:42:27.696Z,16.60
2022-07-28T02:45:30.147Z,16.49
2022-07-28T02:48:33.576Z,16.46
2022-07-28T02:51:35.664Z,16.57
2022-07-28T02:54:37.895Z,16.42
2022-07-28T02:57:40.737Z,16.18
2022-07-28T03:00:42.852Z,16.34
2022-07-28T03:03:46.601Z,16.30
2022-07-28T03:06:48.828Z,16.11
2022-07-28T03:09:51.428Z,16.27
2022-07-28T03:12:55.188Z,16.32
2022-07-28T03:15:57.284Z,16.31
2022-07-28T03:18:59.377Z,16.36
2022-07-28T03:22:01.612Z,16.23
2022-07-28T03:25:17.303Z,16.35
2022-07-28T03:28:20.680Z,16.27
2022-07-28T03:31:22.861Z,16.21
2022-07-28T03:34:25.163Z,16.13
2022-07-28T03:38:08.723Z,15.95
2022-07-28T03:41:10.819Z,15.94
2022-07-28T03:44:13.171Z,16.03
2022-07-28T03:47:15.690Z,16.03
2022-07-28T03:50:18.214Z,16.02
2022-07-28T03:53:22.935Z,15.52
2022-07-28T03:56:25.145Z,15.46
2022-07-28T03:59:27.273Z,15.80
2022-07-28T04:02:29.456Z,16.01
2022-07-28T04:05:31.595Z,16.07
2022-07-28T04:08:33.896Z,16.03
2022-07-28T04:11:35.992Z,16.12
2022-07-28T04:14:38.084Z,16.11
2022-07-28T04:17:40.763Z,16.13
2022-07-28T04:20:42.876Z,16.04
2022-07-28T04:23:44.990Z,15.81
2022-07-28T04:26:47.141Z,15.97
2022-07-28T04:29:49.244Z,16.10
2022-07-28T04:32:52.943Z,15.80
2022-07-28T04:35:55.027Z,16.02
2022-07-28T04:38:59.387Z,15.89
2022-07-28T04:42:02.008Z,16.01
2022-07-28T04:45:08.199Z,15.93
2022-07-28T04:48:12.373Z,15.87
2022-07-28T04:51:14.574Z,15.91
2022-07-28T04:54:17.413Z,15.85
2022-07-28T04:57:20.755Z,15.66
2022-07-28T05:00:24.124Z,15.53
2022-07-28T05:03:26.235Z,15.64
2022-07-28T05:06:28.321Z,15.69
2022-07-28T05:09:31.023Z,15.72
2022-07-28T05:12:33.171Z,15.67
2022-07-28T05:15:35.335Z,15.78
2022-07-28T05:18:37.446Z,15.90
2022-07-28T05:21:39.588Z,15.82
2022-07-28T05:24:41.675Z,15.92
2022-07-28T05:27:45.169Z,15.95
2022-07-28T05:30:47.247Z,16.06
2022-07-28T05:33:49.540Z,15.97
2022-07-28T05:36:54.373Z,15.95
2022-07-28T05:39:56.471Z,16.16
2022-07-28T05:42:58.539Z,15.92
2022-07-28T05:46:00.715Z,15.81
2022-07-28T05:49:03.464Z,16.17
2022-07-28T05:52:05.943Z,16.06
2022-07-28T05:55:08.645Z,16.29
2022-07-28T05:58:10.774Z,16.03
2022-07-28T06:01:12.875Z,15.64
2022-07-28T06:04:30.864Z,15.95
2022-07-28T06:07:43.528Z,15.83
2022-07-28T06:11:02.283Z,15.95
2022-07-28T06:14:04.371Z,15.70
2022-07-28T06:17:06.604Z,15.71
2022-07-28T06:20:09.900Z,15.76
2022-07-28T06:23:12.033Z,15.61
2022-07-28T06:26:14.185Z,15.50
2022-07-28T06:29:16.351Z,15.60
2022-07-28T06:32:18.456Z,15.58
2022-07-28T06:35:20.611Z,15.60
2022-07-28T06:38:22.745Z,15.65
2022-07-28T06:41:24.858Z,16.03
2022-07-28T06:44:48.322Z,15.92
2022-07-28T06:47:52.714Z,15.99
2022-07-28T06:50:56.552Z,16.32
2022-07-28T06:53:58.949Z,16.09
2022-07-28T06:57:01.906Z,16.29
2022-07-28T07:00:07.255Z,16.42
2022-07-28T07:03:09.952Z,16.35
2022-07-28T07:06:12.254Z,16.21
2022-07-28T07:09:14.409Z,16.15
2022-07-28T07:12:16.556Z,15.90
2022-07-28T07:15:18.685Z,16.10
2022-07-28T07:18:20.854Z,16.22
2022-07-28T07:21:22.948Z,16.23
2022-07-28T07:24:28.013Z,16.25
2022-07-28T07:27:30.498Z,15.96
2022-07-28T07:30:33.058Z,15.82
2022-07-28T07:33:35.169Z,15.78
2022-07-28T07:36:37.292Z,15.74
2022-07-28T07:39:39.670Z,15.82
2022-07-28T07:42:41.747Z,15.72
2022-07-28T07:45:43.885Z,15.72
2022-07-28T07:48:46.089Z,15.68
2022-07-28T07:51:48.233Z,15.59
2022-07-28T07:54:50.368Z,15.50
2022-07-28T07:57:52.526Z,15.75
2022-07-28T08:00:55.989Z,15.62
2022-07-28T08:03:59.682Z,16.04
2022-07-28T08:07:03.111Z,15.76
2022-07-28T08:10:06.588Z,15.50
2022-07-28T08:13:08.869Z,15.61
2022-07-28T08:16:11.021Z,15.60
2022-07-28T08:19:13.274Z,15.44
2022-07-28T08:22:16.661Z,15.55
2022-07-28T08:25:19.016Z,15.66
2022-07-28T08:28:21.141Z,15.60
2022-07-28T08:31:23.653Z,15.40
2022-07-28T08:34:31.260Z,15.46
2022-07-28T08:37:36.553Z,15.56
2022-07-28T08:40:39.045Z,15.19
2022-07-28T08:43:42.792Z,15.56
2022-07-28T08:46:45.130Z,15.23
2022-07-28T08:49:48.653Z,15.61
2022-07-28T08:52:54.103Z,15.69
2022-07-28T08:55:59.718Z,15.47
2022-07-28T08:59:02.778Z,15.71
2022-07-28T09:02:05.112Z,15.79
2022-07-28T09:05:08.159Z,15.73
2022-07-28T09:08:11.600Z,15.76
2022-07-28T09:11:13.735Z,15.92
2022-07-28T09:14:16.246Z,15.41
2022-07-28T09:17:19.032Z,15.25
2022-07-28T09:20:21.176Z,15.68
2022-07-28T09:23:41.912Z,15.94
2022-07-28T09:27:08.196Z,16.76
2022-07-28T09:30:10.943Z,16.41
2022-07-28T09:33:43.014Z,16.47
2022-07-28T09:36:45.988Z,16.55
2022-07-28T09:39:49.248Z,16.47
2022-07-28T09:42:55.353Z,16.78
2022-07-28T09:46:20.856Z,16.10
2022-07-28T09:49:47.063Z,16.31
2022-07-28T09:52:49.220Z,17.18
2022-07-28T09:55:59.316Z,16.99
2022-07-28T09:59:03.444Z,16.86
2022-07-28T10:02:05.613Z,16.63
2022-07-28T10:05:10.005Z,16.93
2022-07-28T10:08:12.099Z,17.27
2022-07-28T10:11:20.933Z,17.44
2022-07-28T10:14:34.049Z,16.94
2022-07-28T10:17:36.127Z,17.20
2022-07-28T10:20:38.325Z,17.32
2022-07-28T10:23:40.494Z,16.96
2022-07-28T10:26:45.982Z,17.55
2022-07-28T10:29:50.073Z,18.02
2022-07-28T10:32:52.148Z,17.87
2022-07-28T10:35:55.241Z,18.48
2022-07-28T10:39:05.357Z,18.20
2022-07-28T10:42:13.581Z,18.04
2022-07-28T10:45:15.656Z,17.58
2022-07-28T10:48:17.800Z,17.84
2022-07-28T10:51:21.484Z,17.69
2022-07-28T10:54:28.341Z,17.88
2022-07-28T10:57:30.978Z,17.68
2022-07-28T11:00:46.874Z,17.19
2022-07-28T11:03:56.210Z,16.91
2022-07-28T11:07:15.004Z,17.23
2022-07-28T11:10:18.152Z,17.01
2022-07-28T11:13:28.909Z,17.07
2022-07-28T11:16:36.047Z,16.66
2022-07-28T11:20:24.968Z,16.96
2022-07-28T11:23:47.713Z,17.13
2022-07-28T11:26:51.400Z,17.60
2022-07-28T11:29:53.484Z,17.95
2022-07-28T11:32:55.568Z,18.35
2022-07-28T11:35:58.452Z,18.43
2022-07-28T11:39:26.695Z,18.46
2022-07-28T11:42:30.683Z,18.46
2022-07-28T11:45:38.426Z,18.35
2022-07-28T11:48:45.316Z,18.42
2022-07-28T11:52:11.344Z,18.70
2022-07-28T11:55:13.441Z,18.10
2022-07-28T11:58:27.843Z,17.85
2022-07-28T12:01:31.609Z,18.51
2022-07-28T12:04:34.502Z,18.42
2022-07-28T12:07:48.713Z,18.38
2022-07-28T12:10:55.749Z,18.21
2022-07-28T12:14:05.987Z,18.34
2022-07-28T12:17:08.242Z,18.26
2022-07-28T12:20:14.009Z,17.72
2022-07-28T12:23:16.415Z,17.98
2022-07-28T12:26:32.327Z,18.17
2022-07-28T12:29:36.699Z,18.35
2022-07-28T12:32:38.799Z,17.95
2022-07-28T12:35:40.972Z,18.15
2022-07-28T12:38:43.084Z,18.10
2022-07-28T12:41:45.181Z,18.60
2022-07-28T12:44:48.686Z,18.56
2022-07-28T12:47:50.889Z,18.29
2022-07-28T12:50:53.054Z,18.24
2022-07-28T12:53:55.924Z,19.00
2022-07-28T12:56:58.044Z,18.21
2022-07-28T13:00:07.251Z,18.37
2022-07-28T13:03:24.246Z,18.38
2022-07-28T13:06:26.356Z,18.81
2022-07-28T13:09:32.595Z,18.75
2022-07-28T13:12:35.299Z,19.00
2022-07-28T13:15:37.388Z,19.01
2022-07-28T13:18:42.943Z,19.36
2022-07-28T13:21:57.009Z,19.84
2022-07-28T13:25:01.846Z,19.09
2022-07-28T13:28:04.247Z,19.77
2022-07-28T13:31:06.450Z,19.90
2022-07-28T13:34:09.916Z,20.13
2022-07-28T13:37:12.236Z,20.43
2022-07-28T13:40:14.304Z,20.61
2022-07-28T13:43:16.398Z,20.89
2022-07-28T13:46:19.008Z,20.88
2022-07-28T13:49:21.321Z,20.69
2022-07-28T13:52:33.224Z,20.55
2022-07-28T13:55:38.002Z,20.45
2022-07-28T13:58:40.147Z,20.40
2022-07-28T14:01:44.019Z,20.86
2022-07-28T14:04:52.083Z,20.43
2022-07-28T14:07:54.245Z,20.01
2022-07-28T14:10:59.020Z,19.78
2022-07-28T14:14:01.161Z,19.65
2022-07-28T14:17:14.652Z,19.81
2022-07-28T14:20:25.504Z,19.52
2022-07-28T14:23:27.615Z,19.89
2022-07-28T14:26:36.904Z,19.65
2022-07-28T14:29:39.708Z,19.68
2022-07-28T14:32:41.798Z,18.90
2022-07-28T14:35:44.657Z,19.01
2022-07-28T14:38:53.635Z,19.21
2022-07-28T14:41:56.516Z,19.21
2022-07-28T14:45:02.599Z,18.84
2022-07-28T14:48:05.210Z,18.90
2022-07-28T14:51:07.327Z,18.72
2022-07-28T14:54:09.439Z,18.63
2022-07-28T14:57:11.837Z,19.03
2022-07-28T15:00:15.468Z,18.78
2022-07-28T15:03:17.660Z,19.29
2022-07-28T15:06:19.801Z,19.12
2022-07-28T15:09:22.132Z,18.75
2022-07-28T15:12:24.251Z,18.56
2022-07-28T15:15:29.135Z,18.39
2022-07-28T15:18:31.297Z,18.52
2022-07-28T15:21:36.488Z,18.88
2022-07-28T15:24:38.826Z,18.55
2022-07-28T15:27:45.665Z,18.95
2022-07-28T15:30:52.666Z,18.68
2022-07-28T15:33:57.965Z,18.63
2022-07-28T15:37:01.035Z,18.76
2022-07-28T15:40:03.572Z,18.59
2022-07-28T15:43:05.664Z,18.54
2022-07-28T15:46:10.524Z,18.77
2022-07-28T15:49:12.959Z,18.97
2022-07-28T15:52:15.152Z,18.88
2022-07-28T15:55:17.361Z,18.98
2022-07-28T15:58:23.048Z,18.69
2022-07-28T16:01:26.692Z,18.72
2022-07-28T16:04:28.956Z,18.58
2022-07-28T16:07:33.309Z,18.54
2022-07-28T16:10:35.434Z,18.63
2022-07-28T16:13:38.806Z,18.87
2022-07-28T16:16:41.219Z,18.88
2022-07-28T16:19:49.435Z,18.67
2022-07-28T16:22:52.515Z,18.62
2022-07-28T16:25:54.605Z,19.12
2022-07-28T16:28:56.722Z,18.79
2022-07-28T16:31:58.811Z,19.27
2022-07-28T16:35:00.899Z,18.91
2022-07-28T16:38:04.236Z,18.94
2022-07-28T16:41:06.331Z,18.99
2022-07-28T16:44:09.414Z,18.80
2022-07-28T16:47:12.362Z,18.85
2022-07-28T16:50:16.221Z,18.96
2022-07-28T16:53:20.561Z,18.95
2022-07-28T16:56:22.664Z,18.98
2022-07-28T16:59:24.944Z,18.91
2022-07-28T17:02:47.014Z,18.99
2022-07-28T17:05:49.107Z,18.61
2022-07-28T17:08:51.233Z,19.03
2022-07-28T17:11:53.324Z,19.04
2022-07-28T17:14:55.423Z,18.74
2022-07-28T17:17:58.564Z,19.20
2022-07-28T17:21:01.552Z,18.72
2022-07-28T17:24:04.262Z,18.68
2022-07-28T17:30:30.514Z,18.88
2022-07-28T17:33:32.933Z,18.71
2022-07-28T17:36:35.652Z,19.05
2022-07-28T17:39:37.779Z,19.04
2022-07-28T17:42:39.947Z,19.35
2022-07-28T17:45:42.189Z,19.45
2022-07-28T17:48:44.337Z,19.58
2022-07-28T17:51:47.635Z,19.43
2022-07-28T17:55:08.503Z,19.10
2022-07-28T17:58:22.135Z,19.12
2022-07-28T18:01:29.170Z,19.06
2022-07-28T18:04:31.254Z,19.31
2022-07-28T18:07:49.063Z,19.28
2022-07-28T18:10:54.301Z,19.45
2022-07-28T18:14:04.560Z,19.40
2022-07-28T18:17:07.269Z,19.57
2022-07-28T18:20:10.205Z,19.38
2022-07-28T18:23:12.728Z,19.24
2022-07-28T18:26:14.844Z,19.04
2022-07-28T18:29:17.787Z,19.00
2022-07-28T18:32:19.880Z,19.10
2022-07-28T18:35:22.256Z,19.14
2022-07-28T18:38:24.354Z,19.06
2022-07-28T18:41:26.579Z,19.01
2022-07-28T18:44:28.695Z,18.68
2022-07-28T18:47:30.873Z,18.47
2022-07-28T18:50:32.970Z,18.54
2022-07-28T18:53:36.139Z,18.73
2022-07-28T18:56:38.227Z,18.68
2022-07-28T18:59:45.480Z,18.52
2022-07-28T19:02:55.492Z,18.57
2022-07-28T19:05:58.265Z,18.26
2022-07-28T19:09:00.382Z,18.25
2022-07-28T19:12:02.574Z,17.99
2022-07-28T19:15:05.653Z,17.99
2022-07-28T19:18:10.431Z,17.77
2022-07-28T19:21:13.684Z,17.78
2022-07-28T19:24:16.398Z,17.63
2022-07-28T19:27:19.156Z,17.73
2022-07-28T19:30:21.299Z,17.76
2022-07-28T19:33:24.506Z,17.60
2022-07-28T19:36:27.552Z,17.63
2022-07-28T19:39:34.032Z,17.51
2022-07-28T19:42:36.168Z,17.42
2022-07-28T19:45:38.312Z,17.43
2022-07-28T19:48:40.437Z,17.61
2022-07-28T19:51:42.590Z,17.59
2022-07-28T19:54:44.685Z,17.65
2022-07-28T19:57:59.089Z,17.73
2022-07-28T20:01:01.508Z,17.51
2022-07-28T20:04:05.466Z,17.39
2022-07-28T20:07:08.056Z,17.14
2022-07-28T20:10:10.157Z,16.86
2022-07-28T20:13:12.266Z,17.15
2022-07-28T20:16:14.455Z,17.17
2022-07-28T20:19:16.612Z,17.07
2022-07-28T20:22:18.751Z,17.29
2022-07-28T20:25:20.875Z,17.41
2022-07-28T20:28:23.228Z,17.10
2022-07-28T20:31:25.609Z,17.08
2022-07-28T20:34:27.839Z,17.08
2022-07-28T20:37:35.886Z,17.06
2022-07-28T20:40:39.564Z,16.98
2022-07-28T20:43:41.652Z,16.98
2022-07-28T20:46:43.784Z,16.99
2022-07-28T20:49:45.863Z,16.83
2022-07-28T20:52:48.727Z,16.87
2022-07-28T20:55:50.812Z,16.80
2022-07-28T20:58:52.906Z,17.01
2022-07-28T21:01:55.380Z,17.07
2022-07-28T21:04:57.554Z,16.74
2022-07-28T21:08:05.707Z,16.74
2022-07-28T21:11:08.958Z,16.73
2022-07-28T21:14:11.091Z,16.87
2022-07-28T21:17:13.203Z,16.87
2022-07-28T21:20:15.283Z,16.81
2022-07-28T21:23:18.888Z,17.14
2022-07-28T21:26:21.005Z,17.15
2022-07-28T21:32:23.984Z,17.00
2022-07-28T21:35:26.135Z,17.03
2022-07-28T21:38:28.203Z,17.04
2022-07-28T21:41:36.526Z,17.17
2022-07-28T21:44:39.097Z,17.19
2022-07-28T21:47:41.553Z,17.17
2022-07-28T21:50:44.079Z,17.10
2022-07-28T21:53:49.562Z,16.92
2022-07-28T21:56:51.642Z,16.79
2022-07-28T21:59:54.268Z,16.98
2022-07-28T22:02:56.416Z,16.92
2022-07-28T22:06:02.419Z,16.87
2022-07-28T22:09:04.663Z,16.79
2022-07-28T22:12:07.501Z,16.85
2022-07-28T22:15:10.079Z,16.90
2022-07-28T22:18:16.678Z,16.93
2022-07-28T22:21:19.087Z,17.05
2022-07-28T22:24:21.241Z,17.18
2022-07-28T22:27:23.359Z,17.23
2022-07-28T22:30:25.440Z,17.05
2022-07-28T22:33:27.563Z,16.90
2022-07-28T22:36:29.635Z,16.91
2022-07-28T22:39:32.223Z,16.97
2022-07-28T22:42:34.304Z,17.13
2022-07-28T22:45:49.991Z,17.05
2022-07-28T22:48:53.295Z,17.01
2022-07-28T22:51:55.414Z,17.01
2022-07-28T22:58:17.198Z,17.18
2022-07-28T23:01:19.490Z,17.24
2022-07-28T23:04:22.406Z,17.13
2022-07-28T23:07:53.042Z,17.09
2022-07-28T23:10:48.820Z,16.96
2022-07-28T23:13:50.944Z,17.09
2022-07-28T23:16:53.692Z,16.87
2022-07-28T23:19:58.692Z,17.03
2022-07-28T23:23:00.870Z,17.00
2022-07-28T23:26:03.043Z,16.87
2022-07-28T23:29:05.207Z,16.84
2022-07-28T23:32:13.852Z,16.76
2022-07-28T23:35:19.348Z,16.67
2022-07-28T23:38:21.543Z,16.53
2022-07-28T23:41:24.061Z,16.89
2022-07-28T23:44:26.213Z,16.87
2022-07-28T23:47:28.478Z,16.84
2022-07-28T23:50:30.602Z,16.34
2022-07-28T23:53:32.806Z,16.36
2022-07-28T23:56:34.945Z,16.29
2022-07-28T23:59:37.079Z,16.39
